Terminal Aerodrome Forecast
Issued by NWS

Home | Current Version | Previous Version | Text Only | Print | Product List | Glossary On
Versions: 1 2 3 4 5 6 7 8 9 10 11 12 13 14 15 16 17 18 19 20 21
000
FTUS45 KPSR 210524
TAFSDL
TAF
KSDL 210524Z 2106/2206 VRB05KT P6SM FEW080 BKN140 BKN250
      TEMPO 2106/2107 15015KT
     FM211900 24007KT P6SM FEW080 SCT140 SCT250
     FM220300 05014KT P6SM SCT080 BKN140 BKN250=

USA.gov is the U.S. government's official web portal to all federal, state and local government web resources and services.